Time;durP1;ratioP1;P1;durP2;ratioP2;P2;SDS_P1;SDS_P2;PMS_P1;PMS_P2;Temp;Humidity;BMP_temperature;BMP_pressure;BME280_temperature;BME280_humidity;BME280_pressure;Samples;Min_cycle;Max_cycle;Signal;HPM_P1;HPM_P2
2023/07/26 00:00:06;;;;;;;4.23;1.50;;;14.70;1.00;;;;;;5037131;28;20189;-87
2023/07/26 00:02:31;;;;;;;2.17;1.50;;;14.70;31.30;;;;;;5051567;28;20198;-87
2023/07/26 00:04:57;;;;;;;3.10;1.47;;;14.60;99.90;;;;;;5032019;28;20211;-88
2023/07/26 00:07:22;;;;;;;2.03;1.50;;;14.50;99.90;;;;;;5036874;28;20186;-87
2023/07/26 00:09:48;;;;;;;1.67;1.40;;;14.40;99.90;;;;;;5054349;28;20174;-88
2023/07/26 00:12:13;;;;;;;3.60;1.60;;;14.40;1.00;;;;;;5036585;28;20210;-87
2023/07/26 00:14:39;;;;;;;4.13;1.40;;;14.40;99.90;;;;;;5054783;28;20177;-87
2023/07/26 00:17:05;;;;;;;3.03;1.70;;;14.40;99.90;;;;;;5054896;28;20185;-87
2023/07/26 00:19:30;;;;;;;3.47;1.60;;;14.30;99.90;;;;;;5054556;28;20547;-88
2023/07/26 00:21:56;;;;;;;3.10;1.80;;;14.20;99.90;;;;;;5054457;28;20221;-87
2023/07/26 00:24:22;;;;;;;3.33;1.53;;;14.20;99.90;;;;;;5036661;28;20194;-88
2023/07/26 00:26:47;;;;;;;2.93;1.73;;;14.20;99.90;;;;;;5036483;28;20181;-87
2023/07/26 00:29:13;;;;;;;1.40;1.30;;;14.30;99.90;;;;;;5036470;28;20596;-88
2023/07/26 00:31:38;;;;;;;1.70;1.60;;;14.30;99.90;;;;;;5036266;28;20681;-88
2023/07/26 00:34:04;;;;;;;2.57;1.47;;;14.30;99.90;;;;;;5054373;28;20178;-87
2023/07/26 00:36:29;;;;;;;2.40;1.60;;;14.30;99.90;;;;;;5054219;28;20212;-88
2023/07/26 00:38:55;;;;;;;5.20;1.60;;;14.30;99.90;;;;;;5036796;28;20223;-88
2023/07/26 00:41:21;;;;;;;3.70;1.50;;;14.20;99.90;;;;;;5053699;28;20658;-88
2023/07/26 00:43:47;;;;;;;3.47;1.80;;;14.20;99.90;;;;;;5043309;28;20185;-88
2023/07/26 00:46:12;;;;;;;2.47;1.60;;;14.20;99.90;;;;;;5053604;28;20209;-87
2023/07/26 00:48:38;;;;;;;4.30;1.60;;;14.10;99.90;;;;;;5028532;28;20173;-87
2023/07/26 00:51:05;;;;;;;5.73;1.57;;;14.00;99.90;;;;;;5053762;28;20184;-87
2023/07/26 00:53:32;;;;;;;4.07;1.60;;;13.90;99.90;;;;;;5035934;28;20692;-87
2023/07/26 00:55:58;;;;;;;2.70;1.43;;;13.90;99.90;;;;;;5054325;28;20182;-87
2023/07/26 00:58:24;;;;;;;2.67;1.57;;;13.80;99.90;;;;;;5053090;28;20186;-87
2023/07/26 01:00:50;;;;;;;3.57;1.40;;;13.70;99.90;;;;;;5053671;28;20177;-87
2023/07/26 01:03:17;;;;;;;4.67;1.40;;;13.70;99.90;;;;;;5035625;28;20204;-88
2023/07/26 01:05:49;;;;;;;4.80;1.77;;;13.70;99.90;;;;;;5035763;28;20205;-88
2023/07/26 01:08:42;;;;;;;3.70;1.80;;;13.60;99.90;;;;;;5035814;28;20186;-87
2023/07/26 01:11:20;;;;;;;3.13;1.40;;;13.60;99.90;;;;;;5045562;28;20174;-88
2023/07/26 01:13:54;;;;;;;6.43;1.37;;;13.60;99.90;;;;;;5032562;28;20186;-87
2023/07/26 01:16:20;;;;;;;3.60;1.50;;;13.40;99.90;;;;;;5032769;28;20285;-87
2023/07/26 01:18:45;;;;;;;2.33;1.40;;;13.20;99.90;;;;;;5032508;28;20624;-87
2023/07/26 01:21:11;;;;;;;3.73;1.53;;;13.10;99.90;;;;;;5014625;28;20206;-87
2023/07/26 01:23:38;;;;;;;5.63;1.50;;;13.00;99.90;;;;;;5032690;28;20248;-88
2023/07/26 01:26:04;;;;;;;5.33;1.70;;;13.00;99.90;;;;;;5032503;28;20202;-87
2023/07/26 01:28:30;;;;;;;3.07;1.60;;;13.00;99.90;;;;;;5032336;28;20167;-87
2023/07/26 01:30:58;;;;;;;6.07;2.57;;;13.00;99.90;;;;;;5014556;28;20201;-87
2023/07/26 01:33:24;;;;;;;2.83;1.57;;;13.00;99.90;;;;;;5014593;28;20292;-87
2023/07/26 01:35:51;;;;;;;4.23;1.60;;;12.90;99.90;;;;;;5014643;28;20182;-87
2023/07/26 01:38:19;;;;;;;2.50;1.50;;;12.80;99.90;;;;;;5015024;28;20189;-87
2023/07/26 01:40:45;;;;;;;3.33;1.50;;;12.80;99.90;;;;;;5014742;28;20185;-87
2023/07/26 01:43:11;;;;;;;3.53;1.60;;;12.70;99.90;;;;;;5032327;28;20657;-87
2023/07/26 01:45:37;;;;;;;5.80;1.77;;;12.60;99.90;;;;;;5014528;28;20273;-87
2023/07/26 01:48:02;;;;;;;2.53;1.30;;;12.60;99.90;;;;;;5014811;28;20555;-87
2023/07/26 01:50:28;;;;;;;4.90;1.60;;;12.50;99.90;;;;;;5014388;28;20175;-87
2023/07/26 01:52:54;;;;;;;2.40;1.50;;;12.40;99.90;;;;;;5014433;28;20264;-88
2023/07/26 01:55:19;;;;;;;2.00;1.80;;;12.40;99.90;;;;;;5032102;28;20254;-87
2023/07/26 01:57:45;;;;;;;5.23;1.50;;;12.40;99.90;;;;;;5032008;28;20182;-87
2023/07/26 02:00:11;;;;;;;2.03;1.20;;;12.30;99.90;;;;;;5031926;28;20185;-88
2023/07/26 02:02:37;;;;;;;4.50;1.67;;;12.30;99.90;;;;;;5031702;28;20285;-87
2023/07/26 02:05:03;;;;;;;3.90;1.60;;;12.20;99.90;;;;;;5031818;28;20321;-87
2023/07/26 02:07:28;;;;;;;3.00;1.60;;;12.10;99.90;;;;;;5014361;28;20198;-87
2023/07/26 02:09:54;;;;;;;2.10;1.70;;;12.10;99.90;;;;;;5013933;28;20617;-87
2023/07/26 02:12:20;;;;;;;3.93;1.67;;;12.10;99.90;;;;;;4977922;28;1051618;-87
2023/07/26 02:14:45;;;;;;;2.90;1.70;;;12.00;99.90;;;;;;5041006;28;20645;-87
2023/07/26 02:17:11;;;;;;;2.97;1.80;;;12.00;99.90;;;;;;5031502;28;20174;-88
2023/07/26 02:19:37;;;;;;;3.27;2.00;;;12.00;99.90;;;;;;5034740;28;20181;-85
2023/07/26 02:22:03;;;;;;;1.70;1.53;;;11.90;99.90;;;;;;5034831;28;20225;-87
2023/07/26 02:24:28;;;;;;;2.67;1.43;;;11.90;99.90;;;;;;5034545;28;20200;-87
2023/07/26 02:26:54;;;;;;;5.80;1.70;;;11.90;99.90;;;;;;5034633;28;20178;-87
2023/07/26 02:29:19;;;;;;;3.00;1.60;;;11.90;99.90;;;;;;5052265;28;20173;-88
2023/07/26 02:31:45;;;;;;;3.87;1.67;;;11.90;99.90;;;;;;5052017;28;20267;-87
2023/07/26 02:34:10;;;;;;;4.63;1.63;;;11.80;99.90;;;;;;5034335;28;20185;-87
2023/07/26 02:36:36;;;;;;;3.83;1.70;;;11.70;99.90;;;;;;5052297;28;20185;-88
2023/07/26 02:39:01;;;;;;;1.83;1.50;;;11.70;99.90;;;;;;5052324;28;20186;-87
2023/07/26 02:41:27;;;;;;;2.60;1.60;;;11.60;99.90;;;;;;5033973;28;20192;-87
2023/07/26 02:43:52;;;;;;;2.53;1.70;;;11.60;99.90;;;;;;5034279;28;20180;-88
2023/07/26 02:46:18;;;;;;;2.00;1.53;;;11.70;99.90;;;;;;5052054;28;20663;-87
2023/07/26 02:48:43;;;;;;;3.13;1.70;;;11.60;99.90;;;;;;5034471;28;20243;-87
2023/07/26 02:51:09;;;;;;;2.27;1.53;;;11.60;99.90;;;;;;5034231;28;20174;-87
2023/07/26 02:53:34;;;;;;;3.57;1.67;;;11.60;99.90;;;;;;5033962;28;20660;-87
2023/07/26 02:56:00;;;;;;;3.87;1.80;;;11.50;99.90;;;;;;5052038;28;20694;-87
2023/07/26 02:58:25;;;;;;;3.07;1.73;;;11.40;99.90;;;;;;5034178;28;20561;-87
2023/07/26 03:00:54;;;;;;;2.83;1.67;;;11.30;99.90;;;;;;5051655;28;20196;-87
2023/07/26 03:03:20;;;;;;;2.87;1.70;;;11.40;99.90;;;;;;5034156;28;20247;-87
2023/07/26 03:05:45;;;;;;;3.63;1.90;;;11.40;99.90;;;;;;5034249;28;20240;-87
2023/07/26 03:08:11;;;;;;;2.43;1.70;;;11.30;99.90;;;;;;5034185;28;20174;-89
2023/07/26 03:10:36;;;;;;;2.33;1.50;;;11.30;99.90;;;;;;5051570;28;20303;-87
2023/07/26 03:13:02;;;;;;;2.90;1.77;;;11.20;99.90;;;;;;5029930;28;20259;-87
2023/07/26 03:15:30;;;;;;;1.60;1.50;;;11.20;99.90;;;;;;5032451;28;20236;-87
2023/07/26 03:17:55;;;;;;;1.87;1.70;;;11.40;99.90;;;;;;5032513;28;20178;-87
2023/07/26 03:20:21;;;;;;;1.90;1.70;;;11.40;99.90;;;;;;5014351;28;20224;-87
2023/07/26 03:22:46;;;;;;;2.13;1.80;;;11.50;99.90;;;;;;5043492;28;20586;-87
2023/07/26 03:25:12;;;;;;;4.67;2.07;;;11.50;99.90;;;;;;5056134;28;20239;-87
2023/07/26 03:27:37;;;;;;;3.67;2.00;;;11.50;99.90;;;;;;5056111;28;20280;-87
2023/07/26 03:30:03;;;;;;;2.10;1.90;;;11.60;99.90;;;;;;5038056;28;20170;-87
2023/07/26 03:32:29;;;;;;;5.80;1.93;;;11.60;99.90;;;;;;5056024;28;20201;-87
2023/07/26 03:34:55;;;;;;;2.80;1.90;;;11.60;99.90;;;;;;5055957;28;20181;-87
2023/07/26 03:37:20;;;;;;;2.57;1.80;;;11.60;99.90;;;;;;5038286;28;20182;-87
2023/07/26 03:39:46;;;;;;;3.63;2.00;;;11.50;99.90;;;;;;5055933;28;20596;-87
2023/07/26 03:42:11;;;;;;;2.70;1.87;;;11.50;99.90;;;;;;5055659;28;20197;-87
2023/07/26 03:44:37;;;;;;;3.43;1.97;;;11.50;99.90;;;;;;5037625;28;20288;-87
2023/07/26 03:47:03;;;;;;;4.87;2.17;;;11.50;99.90;;;;;;5055649;28;20174;-88
2023/07/26 03:49:28;;;;;;;2.20;2.00;;;11.50;99.90;;;;;;5055507;28;20169;-87
2023/07/26 03:51:54;;;;;;;3.97;1.87;;;11.60;99.90;;;;;;5037677;28;20246;-87
2023/07/26 03:54:19;;;;;;;4.57;2.10;;;11.70;99.90;;;;;;5037606;28;20230;-87
2023/07/26 03:56:45;;;;;;;3.80;1.77;;;11.70;99.90;;;;;;5037860;28;20311;-87
2023/07/26 03:59:10;;;;;;;2.87;2.10;;;11.80;99.90;;;;;;5055504;28;20636;-87
2023/07/26 04:01:36;;;;;;;2.27;2.03;;;11.90;99.90;;;;;;5050259;28;20699;-87
2023/07/26 04:04:01;;;;;;;2.17;1.90;;;12.00;99.90;;;;;;5017553;28;20188;-87
2023/07/26 04:06:27;;;;;;;3.90;2.10;;;12.00;99.90;;;;;;5017807;28;20170;-87
2023/07/26 04:08:52;;;;;;;3.30;2.00;;;12.10;99.90;;;;;;5034402;28;20276;-87
2023/07/26 04:11:18;;;;;;;2.50;2.00;;;12.10;99.90;;;;;;5017362;28;20179;-87
2023/07/26 04:13:43;;;;;;;3.00;2.17;;;12.20;99.90;;;;;;5062110;23;20663;-81
2023/07/26 04:16:13;;;;;;;4.80;1.90;;;12.20;99.90;;;;;;5046283;28;20232;-82
2023/07/26 04:18:38;;;;;;;4.27;2.00;;;12.20;99.90;;;;;;5037117;28;20653;-81
2023/07/26 04:21:04;;;;;;;3.10;2.20;;;12.30;99.90;;;;;;5054683;28;20660;-82
2023/07/26 04:23:29;;;;;;;2.10;1.90;;;12.30;99.90;;;;;;5036719;28;20288;-81
2023/07/26 04:25:55;;;;;;;3.30;2.10;;;12.20;99.90;;;;;;5036631;28;20209;-81
2023/07/26 04:28:21;;;;;;;3.43;2.03;;;12.20;99.90;;;;;;5036494;28;20636;-81
2023/07/26 04:30:48;;;;;;;4.83;1.93;;;12.20;99.90;;;;;;5035771;28;20184;-81
2023/07/26 04:33:14;;;;;;;2.97;2.00;;;12.10;99.90;;;;;;5026897;28;20678;-81
2023/07/26 04:35:39;;;;;;;5.03;2.23;;;12.20;99.90;;;;;;5054453;28;20268;-81
2023/07/26 04:38:05;;;;;;;3.10;2.20;;;12.20;99.90;;;;;;5054405;28;20209;-81
2023/07/26 04:40:31;;;;;;;2.37;2.13;;;12.30;99.90;;;;;;5037492;28;20181;-79
2023/07/26 04:42:56;;;;;;;2.60;2.00;;;12.30;99.90;;;;;;5057026;28;20194;-81
2023/07/26 04:45:22;;;;;;;2.20;2.00;;;12.40;99.90;;;;;;5028892;28;20616;-82
2023/07/26 04:47:48;;;;;;;2.10;1.90;;;12.40;99.90;;;;;;5037805;28;20166;-82
2023/07/26 04:50:13;;;;;;;2.60;1.90;;;12.40;99.90;;;;;;5020228;28;20586;-83
2023/07/26 04:52:39;;;;;;;2.40;1.83;;;12.40;99.90;;;;;;5019154;28;20213;-83
2023/07/26 04:55:05;;;;;;;2.13;1.63;;;12.40;99.90;;;;;;5019498;28;20265;-80
2023/07/26 04:57:31;;;;;;;2.90;1.90;;;12.40;99.90;;;;;;5037791;28;20261;-81
2023/07/26 04:59:56;;;;;;;2.93;1.93;;;12.30;99.90;;;;;;5018647;28;20232;-80
2023/07/26 05:02:22;;;;;;;2.63;1.93;;;12.40;99.90;;;;;;5017950;28;20193;-81
2023/07/26 05:04:47;;;;;;;3.33;2.00;;;12.40;99.90;;;;;;5040449;28;20190;-81
2023/07/26 05:07:13;;;;;;;2.60;2.30;;;12.40;99.90;;;;;;5023394;28;20215;-80
2023/07/26 05:09:39;;;;;;;2.87;2.00;;;12.30;99.90;;;;;;5021049;28;20178;-80
2023/07/26 05:12:05;;;;;;;3.70;2.10;;;12.30;99.90;;;;;;5020144;28;20194;-83
2023/07/26 05:14:30;;;;;;;3.53;2.13;;;12.20;99.90;;;;;;5021128;28;20189;-83
2023/07/26 05:16:56;;;;;;;3.90;2.50;;;12.20;99.90;;;;;;5020557;28;20194;-80
2023/07/26 05:19:21;;;;;;;4.00;2.23;;;12.30;99.90;;;;;;5023961;28;20201;-81
2023/07/26 05:21:47;;;;;;;2.93;2.10;;;12.30;99.90;;;;;;5023105;28;20182;-81
2023/07/26 05:24:12;;;;;;;2.30;2.10;;;12.20;99.90;;;;;;5023742;28;20264;-82
2023/07/26 05:26:38;;;;;;;3.20;2.10;;;12.30;99.90;;;;;;5023431;28;20182;-81
2023/07/26 05:29:03;;;;;;;3.50;2.43;;;12.30;99.90;;;;;;5021343;28;20181;-80
2023/07/26 05:31:29;;;;;;;2.57;2.33;;;12.30;99.90;;;;;;5021831;28;20190;-85
2023/07/26 05:33:55;;;;;;;3.17;2.20;;;12.30;99.90;;;;;;5030918;28;20198;-83
2023/07/26 05:36:20;;;;;;;6.03;2.37;;;12.30;99.90;;;;;;5054287;28;20185;-83
2023/07/26 05:38:46;;;;;;;25.90;3.23;;;12.40;99.90;;;;;;5056539;28;20680;-83
2023/07/26 05:41:11;;;;;;;166.00;19.00;;;12.30;99.90;;;;;;5038942;28;20196;-83
2023/07/26 05:43:37;;;;;;;1.50;1.30;;;12.40;99.90;;;;;;5057267;28;20252;-83
2023/07/26 05:46:03;;;;;;;2.40;1.83;;;12.40;99.90;;;;;;5037009;28;20201;-83
2023/07/26 05:48:29;;;;;;;2.30;1.97;;;12.40;99.90;;;;;;5054855;28;20668;-83
2023/07/26 05:50:55;;;;;;;2.80;2.10;;;12.50;99.90;;;;;;5037189;28;20173;-82
2023/07/26 05:53:20;;;;;;;1.60;1.50;;;12.50;99.90;;;;;;5036696;28;20186;-82
2023/07/26 05:55:46;;;;;;;1.67;1.20;;;14.20;99.90;;;;;;5036769;28;20196;-85
2023/07/26 05:58:11;;;;;;;1.97;1.40;;;16.00;99.90;;;;;;5036476;28;20178;-84
2023/07/26 06:00:37;;;;;;;2.33;1.30;;;16.60;1.00;;;;;;5038196;28;20177;-82
2023/07/26 06:03:03;;;;;;;3.63;1.33;;;16.80;58.70;;;;;;5037571;28;20194;-83
2023/07/26 06:05:29;;;;;;;2.80;1.60;;;17.00;99.90;;;;;;5027508;28;20210;-84
2023/07/26 06:07:54;;;;;;;2.03;1.20;;;17.00;1.00;;;;;;5054940;28;20192;-84
2023/07/26 06:10:20;;;;;;;3.23;1.50;;;16.20;1.00;;;;;;5038348;28;20174;-83
2023/07/26 06:12:45;;;;;;;2.30;1.23;;;16.40;1.00;;;;;;5043505;28;20233;-83
2023/07/26 06:15:11;;;;;;;2.57;1.30;;;16.50;1.00;;;;;;5043905;28;20185;-85
2023/07/26 06:17:37;;;;;;;1.23;1.07;;;17.20;1.00;;;;;;5043919;28;20174;-85
2023/07/26 06:20:04;;;;;;;1.10;0.90;;;17.80;1.00;;;;;;5045657;28;20174;-86
2023/07/26 06:22:30;;;;;;;2.90;1.20;;;18.10;4.90;;;;;;5057298;28;20224;-84
2023/07/26 06:24:55;;;;;;;1.70;1.13;;;17.90;99.90;;;;;;5044717;28;20194;-85
2023/07/26 06:27:28;;;;;;;0.50;0.50;;;17.70;99.90;;;;;;5027009;28;20170;-84
2023/07/26 06:29:53;;;;;;;2.07;1.30;;;17.90;1.00;;;;;;5032562;28;20177;-87
2023/07/26 06:32:19;;;;;;;1.93;1.60;;;17.80;1.00;;;;;;5061537;28;20189;-83
2023/07/26 06:34:44;;;;;;;3.17;1.43;;;17.60;99.90;;;;;;5058269;28;20186;-81
2023/07/26 06:37:10;;;;;;;3.30;1.57;;;16.50;99.90;;;;;;5049378;28;20181;-82
2023/07/26 06:39:35;;;;;;;1.87;1.60;;;15.60;1.00;;;;;;5039858;28;20173;-77
2023/07/26 06:42:01;;;;;;;1.60;1.40;;;14.90;1.00;;;;;;5045191;28;20268;-79
2023/07/26 06:44:27;;;;;;;1.60;1.27;;;14.40;99.90;;;;;;5041033;28;20247;-80
2023/07/26 06:46:52;;;;;;;1.73;1.30;;;14.20;99.90;;;;;;5035847;28;20174;-80
2023/07/26 06:49:18;;;;;;;1.87;1.10;;;14.10;99.90;;;;;;5049451;28;20535;-79
2023/07/26 06:51:43;;;;;;;1.20;1.10;;;13.90;99.90;;;;;;5057502;28;20169;-81
2023/07/26 06:54:09;;;;;;;1.50;1.17;;;13.90;99.90;;;;;;5057782;28;20639;-81
2023/07/26 06:56:35;;;;;;;1.50;1.20;;;13.90;99.90;;;;;;5040574;28;20177;-81
2023/07/26 06:59:01;;;;;;;1.47;1.27;;;13.90;99.90;;;;;;5045906;28;20180;-81
2023/07/26 07:01:27;;;;;;;0.90;0.90;;;13.90;99.90;;;;;;5062042;28;20196;-81
2023/07/26 07:03:52;;;;;;;0.80;0.80;;;13.80;99.90;;;;;;5044117;28;20260;-81
2023/07/26 07:06:18;;;;;;;1.43;1.00;;;13.80;99.90;;;;;;5039408;28;20210;-81
2023/07/26 07:08:43;;;;;;;1.63;1.10;;;13.80;99.90;;;;;;5040890;28;20521;-81
2023/07/26 07:11:09;;;;;;;1.20;1.10;;;13.80;99.90;;;;;;5039623;28;20182;-83
2023/07/26 07:13:36;;;;;;;1.20;0.97;;;13.80;99.90;;;;;;5059954;28;20206;-81
2023/07/26 07:16:05;;;;;;;0.93;0.93;;;13.80;99.90;;;;;;5040295;28;20175;-83
2023/07/26 07:18:31;;;;;;;1.30;1.20;;;13.80;99.90;;;;;;5022110;28;20667;-81
2023/07/26 07:20:58;;;;;;;1.00;0.90;;;13.80;99.90;;;;;;5021318;28;20174;-84
2023/07/26 07:23:25;;;;;;;1.30;1.20;;;13.80;99.90;;;;;;5024062;28;20194;-81
2023/07/26 07:25:50;;;;;;;1.50;1.20;;;13.60;99.90;;;;;;5040690;28;20198;-81
2023/07/26 07:28:16;;;;;;;1.20;1.10;;;13.70;99.90;;;;;;5020934;28;20175;-82
2023/07/26 07:30:42;;;;;;;1.90;1.40;;;13.70;99.90;;;;;;5020842;28;20174;-83
2023/07/26 07:33:07;;;;;;;1.50;1.27;;;13.70;99.90;;;;;;5023077;28;20240;-82
2023/07/26 07:35:33;;;;;;;1.17;1.07;;;13.70;99.90;;;;;;5021542;28;20193;-82
2023/07/26 07:37:58;;;;;;;1.40;1.13;;;13.70;99.90;;;;;;5023477;28;20181;-82
2023/07/26 07:40:24;;;;;;;1.17;1.07;;;13.90;99.90;;;;;;5023333;28;20175;-82
2023/07/26 07:42:50;;;;;;;1.07;1.03;;;14.00;99.90;;;;;;5042123;28;20198;-81
2023/07/26 07:45:16;;;;;;;1.10;1.00;;;13.90;99.90;;;;;;5042407;28;20224;-82
2023/07/26 07:47:41;;;;;;;1.93;1.30;;;13.80;99.90;;;;;;5041914;28;20228;-81
2023/07/26 07:50:07;;;;;;;1.33;1.13;;;13.80;99.90;;;;;;5021408;28;20178;-80
2023/07/26 07:52:33;;;;;;;0.80;0.80;;;13.80;99.90;;;;;;5023655;28;20252;-82
2023/07/26 07:54:58;;;;;;;1.70;1.17;;;13.80;99.90;;;;;;5023273;28;20615;-81
2023/07/26 07:57:24;;;;;;;1.10;1.00;;;14.00;99.90;;;;;;5037192;28;20284;-79
2023/07/26 07:59:49;;;;;;;2.03;1.37;;;14.10;99.90;;;;;;5041517;28;20277;-81
2023/07/26 08:02:15;;;;;;;1.37;1.27;;;14.10;99.90;;;;;;5031699;28;20205;-80
2023/07/26 08:04:41;;;;;;;1.40;1.30;;;14.00;99.90;;;;;;5021387;28;20198;-81
2023/07/26 08:07:06;;;;;;;1.70;1.60;;;13.90;99.90;;;;;;5023620;28;20179;-82
2023/07/26 08:09:32;;;;;;;2.70;1.60;;;13.90;99.90;;;;;;5022343;28;20236;-80
2023/07/26 08:11:58;;;;;;;1.70;1.47;;;13.90;99.90;;;;;;5023667;28;20170;-80
2023/07/26 08:14:24;;;;;;;1.90;1.37;;;13.90;99.90;;;;;;5043985;28;20173;-79
2023/07/26 08:16:50;;;;;;;1.83;1.57;;;14.00;99.90;;;;;;5061065;28;20177;-81
2023/07/26 08:19:15;;;;;;;1.70;1.60;;;14.00;99.90;;;;;;5042744;28;20166;-79
2023/07/26 08:21:41;;;;;;;2.27;1.80;;;14.10;99.90;;;;;;5061217;28;20180;-79
2023/07/26 08:24:07;;;;;;;2.50;2.00;;;14.10;99.90;;;;;;5043322;28;20181;-80
2023/07/26 08:26:32;;;;;;;1.70;1.60;;;14.20;99.90;;;;;;5043078;28;20202;-80
2023/07/26 08:28:58;;;;;;;2.60;2.17;;;14.30;99.90;;;;;;5061251;28;20166;-80
2023/07/26 08:31:23;;;;;;;3.00;2.53;;;14.40;99.90;;;;;;5043957;28;20161;-79
2023/07/26 08:33:49;;;;;;;3.80;3.13;;;14.60;99.90;;;;;;5043624;28;20185;-79
2023/07/26 08:36:14;;;;;;;2.93;2.67;;;14.70;99.90;;;;;;5039549;28;20565;-80
2023/07/26 08:38:40;;;;;;;2.77;2.53;;;14.60;99.90;;;;;;5040902;28;20254;-79
2023/07/26 08:41:07;;;;;;;2.87;2.40;;;14.80;99.90;;;;;;5043522;28;20177;-79
2023/07/26 08:43:36;;;;;;;2.57;2.33;;;14.90;99.90;;;;;;5060525;28;20674;-82
2023/07/26 08:46:05;;;;;;;2.90;2.70;;;14.80;99.90;;;;;;5041753;28;20567;-79
2023/07/26 08:48:32;;;;;;;3.00;2.70;;;14.90;99.90;;;;;;5041135;28;20169;-80
2023/07/26 08:51:00;;;;;;;2.93;2.73;;;14.80;99.90;;;;;;5059716;28;20190;-80
2023/07/26 08:53:27;;;;;;;2.80;2.60;;;14.80;99.90;;;;;;5051058;28;20202;-79
2023/07/26 08:55:53;;;;;;;2.80;2.60;;;14.80;99.90;;;;;;5060520;28;20394;-79
2023/07/26 08:58:18;;;;;;;2.57;2.37;;;14.90;99.90;;;;;;5042616;28;20286;-81
2023/07/26 09:00:45;;;;;;;3.13;2.83;;;14.90;99.90;;;;;;5059997;28;20174;-79
2023/07/26 09:03:10;;;;;;;2.70;2.40;;;15.00;99.90;;;;;;5037839;28;20212;-79
2023/07/26 09:05:37;;;;;;;2.57;2.37;;;14.80;99.90;;;;;;5059676;28;20189;-80
2023/07/26 09:08:02;;;;;;;2.70;2.50;;;14.60;99.90;;;;;;5059904;28;20165;-79
2023/07/26 09:10:30;;;;;;;2.43;2.23;;;14.60;99.90;;;;;;5058897;28;20196;-80
2023/07/26 09:13:12;;;;;;;2.40;2.20;;;14.70;99.90;;;;;;5058132;28;20753;-77
2023/07/26 09:15:40;;;;;;;2.30;2.10;;;14.80;99.90;;;;;;5034562;28;20178;-80
2023/07/26 09:18:06;;;;;;;2.40;2.20;;;15.00;99.90;;;;;;5059219;28;20247;-79
2023/07/26 09:20:32;;;;;;;2.30;2.10;;;15.20;86.10;;;;;;5058842;28;20181;-79
2023/07/26 09:23:03;;;;;;;2.90;2.33;;;15.60;99.90;;;;;;5059447;28;20202;-79
2023/07/26 09:25:43;;;;;;;2.57;2.37;;;15.70;1.00;;;;;;5058123;28;20565;-80
2023/07/26 09:28:11;;;;;;;2.20;2.00;;;15.60;1.00;;;;;;5059623;28;20322;-80
2023/07/26 09:30:38;;;;;;;2.50;2.30;;;15.80;1.00;;;;;;5040939;28;20172;-80
2023/07/26 09:33:09;;;;;;;2.90;2.60;;;16.00;9.30;;;;;;5058843;28;20189;-79
2023/07/26 09:35:48;;;;;;;2.80;2.60;;;16.20;1.00;;;;;;5053885;28;20201;-79
2023/07/26 09:38:25;;;;;;;2.50;2.30;;;16.10;1.00;;;;;;5028327;28;20165;-80
2023/07/26 09:40:51;;;;;;;2.70;2.50;;;16.10;1.00;;;;;;5044319;28;20527;-79
2023/07/26 09:43:30;;;;;;;3.33;3.03;;;16.30;1.00;;;;;;5041852;28;20694;-81
2023/07/26 09:46:00;;;;;;;3.07;2.77;;;16.60;1.00;;;;;;5058451;28;20201;-79
2023/07/26 09:48:26;;;;;;;3.83;2.87;;;16.30;99.90;;;;;;5041133;28;20197;-80
2023/07/26 09:50:52;;;;;;;3.03;2.20;;;16.20;99.90;;;;;;5060203;28;20648;-80
2023/07/26 09:53:21;;;;;;;1.57;1.40;;;16.20;1.00;;;;;;5042182;28;20224;-79
2023/07/26 09:55:47;;;;;;;1.40;1.30;;;16.40;99.90;;;;;;5038713;28;20264;-83
2023/07/26 09:58:13;;;;;;;2.13;1.93;;;16.40;1.00;;;;;;5041251;28;20181;-79
2023/07/26 10:00:39;;;;;;;2.13;1.67;;;16.60;1.00;;;;;;5059379;28;20178;-79
2023/07/26 10:03:06;;;;;;;2.10;1.90;;;16.60;1.00;;;;;;5041880;28;20196;-77
2023/07/26 10:05:58;;;;;;;1.73;1.50;;;16.40;20.20;;;;;;5041866;28;20193;-79
2023/07/26 10:08:25;;;;;;;2.73;1.70;;;16.40;99.90;;;;;;5055437;28;20196;-80
2023/07/26 10:10:52;;;;;;;4.83;2.40;;;17.00;1.00;;;;;;5059377;28;20177;-77
2023/07/26 10:13:19;;;;;;;2.27;2.07;;;17.70;1.00;;;;;;5108248;23;20225;-80
2023/07/26 10:15:47;;;;;;;1.77;1.67;;;18.00;1.00;;;;;;5053746;28;20170;-81
2023/07/26 10:18:15;;;;;;;2.50;2.03;;;17.90;99.90;;;;;;5030031;28;20183;-79
2023/07/26 10:20:42;;;;;;;3.17;2.33;;;17.70;1.00;;;;;;5049116;28;20564;-79
2023/07/26 10:23:10;;;;;;;2.13;1.90;;;17.60;1.00;;;;;;5051464;28;20217;-84
2023/07/26 10:25:37;;;;;;;2.27;1.70;;;17.30;1.80;;;;;;5016344;28;20548;-82
2023/07/26 10:28:04;;;;;;;4.77;2.00;;;17.20;99.90;;;;;;5024504;28;20170;-80
2023/07/26 10:30:30;;;;;;;2.40;1.77;;;17.10;1.00;;;;;;5053451;28;20165;-83
2023/07/26 10:32:58;;;;;;;2.00;1.80;;;17.10;1.00;;;;;;5052851;28;20189;-82
2023/07/26 10:35:32;;;;;;;2.70;1.77;;;17.00;1.00;;;;;;5048947;28;20174;-81
2023/07/26 10:37:59;;;;;;;1.83;1.63;;;17.00;99.90;;;;;;5034456;28;20174;-82
2023/07/26 10:40:29;;;;;;;1.77;1.43;;;17.00;1.00;;;;;;5016491;28;20174;-77
2023/07/26 10:42:55;;;;;;;1.87;1.70;;;17.10;71.50;;;;;;5049901;28;20301;-81
2023/07/26 10:45:37;;;;;;;2.30;1.87;;;17.00;1.00;;;;;;5035270;28;20662;-81
2023/07/26 10:48:03;;;;;;;2.57;2.00;;;17.00;1.00;;;;;;5035733;28;20169;-82
2023/07/26 10:50:29;;;;;;;2.47;1.80;;;16.80;1.00;;;;;;5035480;28;20599;-82
2023/07/26 10:52:54;;;;;;;1.73;1.63;;;16.70;1.00;;;;;;5035593;28;20196;-82
2023/07/26 10:55:23;;;;;;;2.17;1.97;;;16.60;1.00;;;;;;5035757;28;20201;-82
2023/07/26 10:57:49;;;;;;;4.27;2.07;;;16.70;99.90;;;;;;5035492;28;20227;-81
2023/07/26 11:00:23;;;;;;;2.40;2.10;;;16.60;99.90;;;;;;5035134;28;20181;-81
2023/07/26 11:02:50;;;;;;;2.17;1.70;;;16.60;1.00;;;;;;5035501;28;20193;-82
2023/07/26 11:05:19;;;;;;;2.17;1.73;;;16.90;1.00;;;;;;5053141;28;20208;-82
2023/07/26 11:07:51;;;;;;;2.77;1.93;;;17.10;1.00;;;;;;5053615;28;20176;-80
2023/07/26 11:10:24;;;;;;;2.53;2.33;;;17.30;99.90;;;;;;5053254;28;20177;-80
2023/07/26 11:13:12;;;;;;;3.23;1.70;;;17.40;1.00;;;;;;5035246;28;20206;-80
2023/07/26 11:15:42;;;;;;;2.17;1.67;;;17.50;1.00;;;;;;5053559;28;20170;-80
2023/07/26 11:18:09;;;;;;;3.03;1.90;;;17.40;1.00;;;;;;5035146;28;20645;-79
2023/07/26 11:20:49;;;;;;;2.07;1.90;;;17.40;1.00;;;;;;5052778;28;20204;-80
2023/07/26 11:23:25;;;;;;;1.70;1.60;;;17.90;99.90;;;;;;5053158;28;20607;-80
2023/07/26 11:25:52;;;;;;;2.03;1.70;;;18.10;1.00;;;;;;5053219;28;20197;-80
2023/07/26 11:28:18;;;;;;;2.17;1.87;;;18.00;1.00;;;;;;5034869;28;20166;-80
2023/07/26 11:30:55;;;;;;;2.00;1.60;;;17.90;49.80;;;;;;5053725;28;20174;-79
2023/07/26 11:33:29;;;;;;;2.93;1.60;;;17.90;1.00;;;;;;5053026;28;20185;-79
2023/07/26 11:35:56;;;;;;;1.73;1.63;;;17.90;99.90;;;;;;5036230;28;20210;-78
2023/07/26 11:38:21;;;;;;;2.23;1.80;;;17.80;1.00;;;;;;5033448;28;20197;-78
2023/07/26 11:40:49;;;;;;;3.27;2.00;;;17.80;1.00;;;;;;5032829;28;20617;-78
2023/07/26 11:43:16;;;;;;;2.37;1.60;;;17.90;99.90;;;;;;5017438;28;20194;-78
2023/07/26 11:45:43;;;;;;;1.70;1.60;;;18.60;1.00;;;;;;5019460;28;20194;-79
2023/07/26 11:48:11;;;;;;;3.80;1.73;;;19.30;1.00;;;;;;5019426;28;20257;-80
2023/07/26 11:50:37;;;;;;;1.80;1.70;;;19.50;99.90;;;;;;5036723;28;20170;-81
2023/07/26 11:53:08;;;;;;;1.53;1.43;;;19.20;1.00;;;;;;5037159;28;20243;-82
2023/07/26 11:55:34;;;;;;;1.77;1.47;;;19.10;99.90;;;;;;5019266;28;20178;-81
2023/07/26 11:58:04;;;;;;;2.33;1.30;;;18.90;1.00;;;;;;5036902;28;20226;-81
2023/07/26 12:00:34;;;;;;;1.97;1.33;;;18.70;26.90;;;;;;5037080;28;20174;-80
2023/07/26 12:03:05;;;;;;;1.93;1.73;;;18.40;99.90;;;;;;5026139;28;20201;-81
2023/07/26 12:05:32;;;;;;;1.47;1.33;;;18.20;1.00;;;;;;5056995;28;20299;-80
2023/07/26 12:08:00;;;;;;;1.63;1.30;;;17.90;99.90;;;;;;5056841;28;20185;-81
2023/07/26 12:10:31;;;;;;;2.10;1.90;;;17.60;1.00;;;;;;5038804;28;20172;-80
2023/07/26 12:12:59;;;;;;;1.20;0.97;;;17.40;1.00;;;;;;5055937;28;20209;-80
2023/07/26 12:15:25;;;;;;;1.30;1.20;;;17.20;1.00;;;;;;5056074;28;20174;-80
2023/07/26 12:18:01;;;;;;;1.83;1.07;;;17.00;1.00;;;;;;5037821;28;20169;-80
2023/07/26 12:20:32;;;;;;;1.30;1.20;;;16.90;1.00;;;;;;5037964;28;20182;-79
2023/07/26 12:22:58;;;;;;;1.20;1.10;;;16.90;99.90;;;;;;5037696;28;20281;-80
2023/07/26 12:25:36;;;;;;;1.30;1.10;;;16.90;99.90;;;;;;5037576;28;20204;-78
2023/07/26 12:28:06;;;;;;;1.43;1.10;;;17.20;99.90;;;;;;5037816;28;20648;-78
2023/07/26 12:30:31;;;;;;;1.27;1.00;;;17.50;1.00;;;;;;5038085;28;20193;-79
2023/07/26 12:33:14;;;;;;;1.10;1.00;;;18.10;1.00;;;;;;5056127;28;20190;-80
2023/07/26 12:35:44;;;;;;;1.30;1.20;;;18.60;1.00;;;;;;5056007;28;20260;-80
2023/07/26 12:38:14;;;;;;;2.37;1.50;;;18.80;71.60;;;;;;5038172;28;20165;-81
2023/07/26 12:40:40;;;;;;;2.27;1.60;;;18.60;1.00;;;;;;5038347;28;20227;-80
2023/07/26 12:43:29;;;;;;;3.23;1.90;;;18.70;1.00;;;;;;5038106;28;20248;-78
2023/07/26 12:45:56;;;;;;;5.23;1.53;;;19.00;99.90;;;;;;5055522;28;20315;-80